createdAt,value
2019-03-01T05:00:59.035Z,0.00
2019-03-01T05:01:59.205Z,0.00
2019-03-01T05:02:59.374Z,0.00
2019-03-01T05:03:59.548Z,0.00
2019-03-01T05:04:59.718Z,0.00
2019-03-01T05:05:59.893Z,0.00
2019-03-01T05:07:00.058Z,0.00
2019-03-01T05:08:00.228Z,0.00
2019-03-01T05:09:00.398Z,0.00
2019-03-01T05:10:00.569Z,0.00
2019-03-01T05:11:00.755Z,0.00
2019-03-01T05:12:00.908Z,0.00
2019-03-01T05:13:01.079Z,0.00
2019-03-01T05:14:01.250Z,0.00
2019-03-01T05:15:01.422Z,0.00
2019-03-01T05:16:01.592Z,0.00
2019-03-01T05:17:01.772Z,0.00
2019-03-01T05:18:01.941Z,0.00
2019-03-01T05:19:02.106Z,0.00
2019-03-01T05:20:02.276Z,0.00
2019-03-01T05:21:02.446Z,0.00
2019-03-01T05:22:02.620Z,0.00
2019-03-01T05:23:02.788Z,0.00
2019-03-01T05:24:02.960Z,0.00
2019-03-01T05:25:03.135Z,0.00
2019-03-01T05:26:03.301Z,0.00
2019-03-01T05:27:03.469Z,0.00
2019-03-01T05:28:03.640Z,0.00
2019-03-01T05:29:03.811Z,0.00
2019-03-01T05:30:03.979Z,0.00
2019-03-01T05:31:04.150Z,0.00
2019-03-01T05:32:04.320Z,0.00
2019-03-01T05:33:04.490Z,0.00
2019-03-01T05:34:04.661Z,0.00
2019-03-01T05:35:04.830Z,0.00
2019-03-01T05:36:04.998Z,0.00
2019-03-01T05:37:05.173Z,0.00
2019-03-01T05:38:05.339Z,0.00
2019-03-01T05:39:05.509Z,0.00
2019-03-01T05:40:05.682Z,0.00
2019-03-01T05:41:05.851Z,0.00
2019-03-01T05:42:06.020Z,0.00
2019-03-01T05:43:06.194Z,0.00
2019-03-01T05:44:06.360Z,0.00
2019-03-01T05:45:06.530Z,0.00
2019-03-01T05:46:06.701Z,0.00
2019-03-01T05:47:06.868Z,0.00
2019-03-01T05:48:07.039Z,0.00
2019-03-01T05:49:07.208Z,0.00
2019-03-01T05:50:07.380Z,0.00
2019-03-01T05:51:07.554Z,0.00
2019-03-01T05:52:07.714Z,0.00
2019-03-01T05:53:07.887Z,0.00
2019-03-01T05:54:08.059Z,0.00
2019-03-01T05:55:08.235Z,0.00
2019-03-01T05:56:08.402Z,0.00
2019-03-01T05:57:08.572Z,0.00
2019-03-01T05:58:16.258Z,0.00
2019-03-01T05:59:08.914Z,0.00
2019-03-01T06:00:09.084Z,0.00
2019-03-01T06:01:09.254Z,0.00
2019-03-01T06:02:09.421Z,0.00
2019-03-01T06:03:09.591Z,0.00
2019-03-01T06:04:09.764Z,0.00
2019-03-01T06:05:09.934Z,0.00
2019-03-01T06:06:10.103Z,0.00
2019-03-01T06:07:10.274Z,0.00
2019-03-01T06:08:10.446Z,0.00
2019-03-01T06:09:10.618Z,0.00
2019-03-01T06:10:10.790Z,0.00
2019-03-01T06:11:10.957Z,0.00
2019-03-01T06:12:11.127Z,0.00
2019-03-01T06:13:11.304Z,0.00
2019-03-01T06:14:11.471Z,0.00
2019-03-01T06:15:11.640Z,0.00
2019-03-01T06:16:11.815Z,0.00
2019-03-01T06:17:11.985Z,0.00
2019-03-01T06:18:12.152Z,0.00
2019-03-01T06:19:12.322Z,0.00
2019-03-01T06:20:12.492Z,5.63
2019-03-01T06:21:12.662Z,5.63
2019-03-01T06:22:12.832Z,5.63
2019-03-01T06:23:13.007Z,5.63
2019-03-01T06:24:13.174Z,5.63
2019-03-01T06:25:13.346Z,5.63
2019-03-01T06:26:13.516Z,11.25
2019-03-01T06:27:13.687Z,16.88
2019-03-01T06:28:13.856Z,22.50
2019-03-01T06:29:14.026Z,22.50
2019-03-01T06:30:14.198Z,22.50
2019-03-01T06:31:14.364Z,28.13
2019-03-01T06:32:14.538Z,28.13
2019-03-01T06:33:14.708Z,33.75
2019-03-01T06:34:14.877Z,33.75
2019-03-01T06:35:15.047Z,39.38
2019-03-01T06:36:15.218Z,39.38
2019-03-01T06:37:15.389Z,45.00
2019-03-01T06:38:16.180Z,45.00
2019-03-01T06:39:15.722Z,45.00
2019-03-01T06:40:15.893Z,45.00
2019-03-01T06:41:16.064Z,45.00
2019-03-01T06:42:16.234Z,45.00
2019-03-01T06:43:16.402Z,50.63
2019-03-01T06:44:16.573Z,50.63
2019-03-01T06:45:16.743Z,45.00
2019-03-01T06:46:16.913Z,45.00
2019-03-01T06:47:17.083Z,45.00
2019-03-01T06:48:17.254Z,45.00
2019-03-01T06:49:17.423Z,39.38
2019-03-01T06:50:17.601Z,39.38
2019-03-01T06:51:17.769Z,39.38
2019-03-01T06:52:17.934Z,33.75
2019-03-01T06:53:18.104Z,33.75
2019-03-01T06:54:18.278Z,33.75
2019-03-01T06:55:18.446Z,33.75
2019-03-01T06:56:18.615Z,33.75
2019-03-01T06:57:18.787Z,39.38
2019-03-01T06:58:18.958Z,39.38
2019-03-01T06:59:19.125Z,39.38
2019-03-01T07:00:19.305Z,39.38
2019-03-01T07:01:19.470Z,39.38
2019-03-01T07:02:19.638Z,39.38
2019-03-01T07:03:19.806Z,39.38
2019-03-01T07:04:19.977Z,45.00
2019-03-01T07:05:20.148Z,45.00
2019-03-01T07:06:20.317Z,39.38
2019-03-01T07:07:20.485Z,39.38
2019-03-01T07:08:20.654Z,39.38
2019-03-01T07:09:20.830Z,39.38
2019-03-01T07:10:20.995Z,39.38
2019-03-01T07:11:21.163Z,39.38
2019-03-01T07:12:21.333Z,39.38
2019-03-01T07:13:21.504Z,39.38
2019-03-01T07:14:21.685Z,45.00
2019-03-01T07:15:21.869Z,50.63
2019-03-01T07:16:22.015Z,56.25
2019-03-01T07:17:22.186Z,61.88
2019-03-01T07:18:22.356Z,61.88
2019-03-01T07:19:22.525Z,67.50
2019-03-01T07:20:22.696Z,78.75
2019-03-01T07:21:22.870Z,84.38
2019-03-01T07:22:23.034Z,84.38
2019-03-01T07:23:23.206Z,78.75
2019-03-01T07:24:23.441Z,84.38
2019-03-01T07:25:23.539Z,90.00
2019-03-01T07:26:23.711Z,90.00
2019-03-01T07:27:23.881Z,84.38
2019-03-01T07:28:24.049Z,84.38
2019-03-01T07:29:24.220Z,78.75
2019-03-01T07:30:24.393Z,78.75
2019-03-01T07:31:24.561Z,67.50
2019-03-01T07:32:24.732Z,61.88
2019-03-01T07:33:24.905Z,56.25
2019-03-01T07:34:25.075Z,56.25
2019-03-01T07:35:25.244Z,56.25
2019-03-01T07:36:25.417Z,61.88
2019-03-01T07:37:25.588Z,73.13
2019-03-01T07:38:25.756Z,78.75
2019-03-01T07:39:25.931Z,78.75
2019-03-01T07:40:26.101Z,84.38
2019-03-01T07:41:26.270Z,90.00
2019-03-01T07:42:26.444Z,106.88
2019-03-01T07:43:26.615Z,112.50
2019-03-01T07:44:26.772Z,118.13
2019-03-01T07:45:26.938Z,135.00
2019-03-01T07:46:27.112Z,146.25
2019-03-01T07:47:27.281Z,146.25
2019-03-01T07:48:27.450Z,146.25
2019-03-01T07:49:27.619Z,146.25
2019-03-01T07:50:27.789Z,151.88
2019-03-01T07:51:30.753Z,151.88
2019-03-01T07:52:28.131Z,151.88
2019-03-01T07:53:28.304Z,163.13
2019-03-01T07:54:28.483Z,168.75
2019-03-01T07:55:29.453Z,180.00
2019-03-01T07:56:28.816Z,185.63
2019-03-01T07:57:28.991Z,191.25
2019-03-01T07:58:29.157Z,196.88
2019-03-01T07:59:33.412Z,196.88
2019-03-01T08:00:29.500Z,196.88
2019-03-01T08:01:29.931Z,202.50
2019-03-01T08:02:29.839Z,208.13
2019-03-01T08:03:30.024Z,213.75
2019-03-01T08:04:30.183Z,225.00
2019-03-01T08:05:30.350Z,236.25
2019-03-01T08:06:30.523Z,247.50
2019-03-01T08:07:30.693Z,258.75
2019-03-01T08:08:30.867Z,270.00
2019-03-01T08:09:31.039Z,286.88
2019-03-01T08:10:31.210Z,298.13
2019-03-01T08:11:31.719Z,309.38
2019-03-01T08:12:31.553Z,320.63
2019-03-01T08:13:31.725Z,326.25
2019-03-01T08:14:31.903Z,331.88
2019-03-01T08:15:32.063Z,348.75
2019-03-01T08:16:32.234Z,354.38
2019-03-01T08:17:32.662Z,348.75
2019-03-01T08:18:32.575Z,320.63
2019-03-01T08:19:32.747Z,298.13
2019-03-01T08:20:33.883Z,286.88
2019-03-01T08:21:33.086Z,292.50
2019-03-01T08:22:33.260Z,303.75
2019-03-01T08:23:35.103Z,309.38
2019-03-01T08:24:33.600Z,320.63
2019-03-01T08:25:33.773Z,326.25
2019-03-01T08:26:34.249Z,320.63
2019-03-01T08:27:34.113Z,309.38
2019-03-01T08:28:34.297Z,292.50
2019-03-01T08:29:34.902Z,281.25
2019-03-01T08:30:34.629Z,281.25
2019-03-01T08:31:34.801Z,292.50
2019-03-01T08:32:34.973Z,315.00
2019-03-01T08:33:35.144Z,337.50
2019-03-01T08:34:35.414Z,343.13
2019-03-01T08:35:35.487Z,326.25
2019-03-01T08:36:38.613Z,320.63
2019-03-01T08:37:35.831Z,320.63
2019-03-01T08:38:36.001Z,320.63
2019-03-01T08:39:36.578Z,354.38
2019-03-01T08:40:36.345Z,393.75
2019-03-01T08:41:36.518Z,410.63
2019-03-01T08:42:37.412Z,399.38
2019-03-01T08:43:36.862Z,382.50
2019-03-01T08:44:37.029Z,399.38
2019-03-01T08:45:37.201Z,421.88
2019-03-01T08:46:37.373Z,444.38
2019-03-01T08:47:37.544Z,438.75
2019-03-01T08:48:37.717Z,393.75
2019-03-01T08:49:37.887Z,365.63
2019-03-01T08:50:38.057Z,405.00
2019-03-01T08:51:38.230Z,450.00
2019-03-01T08:52:40.379Z,433.13
2019-03-01T08:53:38.575Z,393.75
2019-03-01T08:54:38.742Z,376.88
2019-03-01T08:55:39.774Z,376.88
2019-03-01T08:56:39.084Z,365.63
2019-03-01T08:57:44.299Z,371.25
2019-03-01T08:58:41.558Z,399.38
2019-03-01T08:59:39.595Z,405.00
2019-03-01T09:00:39.766Z,388.13
2019-03-01T09:01:41.692Z,371.25
2019-03-01T09:02:40.122Z,376.88
2019-03-01T09:03:41.675Z,382.50
2019-03-01T09:04:40.457Z,365.63
2019-03-01T09:05:40.641Z,337.50
2019-03-01T09:06:41.747Z,326.25
2019-03-01T09:07:40.971Z,326.25
2019-03-01T09:08:42.977Z,348.75
2019-03-01T09:09:41.309Z,376.88
2019-03-01T09:10:41.482Z,405.00
2019-03-01T09:11:44.540Z,455.63
2019-03-01T09:12:41.824Z,495.00
2019-03-01T09:13:41.995Z,534.38
2019-03-01T09:14:42.170Z,545.63
2019-03-01T09:15:42.337Z,551.25
2019-03-01T09:16:42.511Z,568.13
2019-03-01T09:17:42.680Z,523.13
2019-03-01T09:18:42.852Z,517.50
2019-03-01T09:19:43.027Z,523.13
2019-03-01T09:20:43.192Z,455.63
2019-03-01T09:21:44.743Z,410.63
2019-03-01T09:22:43.535Z,376.88
2019-03-01T09:23:43.707Z,320.63
2019-03-01T09:24:43.879Z,270.00
2019-03-01T09:25:44.745Z,241.88
2019-03-01T09:26:44.221Z,225.00
2019-03-01T09:27:44.392Z,236.25
2019-03-01T09:28:44.564Z,253.13
2019-03-01T09:29:44.733Z,292.50
2019-03-01T09:30:44.903Z,348.75
2019-03-01T09:31:45.076Z,371.25
2019-03-01T09:32:45.245Z,376.88
2019-03-01T09:33:45.416Z,343.13
2019-03-01T09:34:45.598Z,337.50
2019-03-01T09:35:45.759Z,360.00
2019-03-01T09:36:45.927Z,371.25
2019-03-01T09:37:46.095Z,371.25
2019-03-01T09:38:46.263Z,371.25
2019-03-01T09:39:46.432Z,405.00
2019-03-01T09:40:46.604Z,438.75
2019-03-01T09:41:46.775Z,461.25
2019-03-01T09:42:47.486Z,444.38
2019-03-01T09:43:47.118Z,416.25
2019-03-01T09:44:47.288Z,427.50
2019-03-01T09:45:48.757Z,466.88
2019-03-01T09:46:47.631Z,495.00
2019-03-01T09:47:47.803Z,500.63
2019-03-01T09:48:49.407Z,478.13
2019-03-01T09:49:48.143Z,438.75
2019-03-01T09:50:48.319Z,393.75
2019-03-01T09:51:49.966Z,388.13
2019-03-01T09:52:48.656Z,376.88
2019-03-01T09:53:48.828Z,410.63
2019-03-01T09:54:48.998Z,438.75
2019-03-01T09:55:49.172Z,405.00
2019-03-01T09:56:49.343Z,427.50
2019-03-01T09:57:49.514Z,517.50
2019-03-01T09:58:49.686Z,590.63
2019-03-01T09:59:49.856Z,601.88
2019-03-01T10:00:56.278Z,596.25
2019-03-01T10:01:50.198Z,590.63
2019-03-01T10:02:50.370Z,630.00
2019-03-01T10:03:50.542Z,652.50
2019-03-01T10:04:50.712Z,663.75
2019-03-01T10:05:50.884Z,669.38
2019-03-01T10:06:51.054Z,703.13
2019-03-01T10:07:51.225Z,697.50
2019-03-01T10:08:51.396Z,646.88
2019-03-01T10:09:51.569Z,596.25
2019-03-01T10:10:51.741Z,562.50
2019-03-01T10:11:51.908Z,534.38
2019-03-01T10:12:52.079Z,489.38
2019-03-01T10:13:52.251Z,438.75
2019-03-01T10:14:52.424Z,416.25
2019-03-01T10:15:52.594Z,433.13
2019-03-01T10:16:52.770Z,489.38
2019-03-01T10:17:52.936Z,534.38
2019-03-01T10:18:53.115Z,556.88
2019-03-01T10:19:53.280Z,573.75
2019-03-01T10:20:53.451Z,579.38
2019-03-01T10:21:53.622Z,556.88
2019-03-01T10:22:53.794Z,540.00
2019-03-01T10:23:53.966Z,523.13
2019-03-01T10:24:54.776Z,500.63
2019-03-01T10:25:54.321Z,489.38
2019-03-01T10:26:54.493Z,483.75
2019-03-01T10:27:54.666Z,438.75
2019-03-01T10:28:54.838Z,421.88
2019-03-01T10:29:55.007Z,410.63
2019-03-01T10:30:55.182Z,399.38
2019-03-01T10:31:55.353Z,376.88
2019-03-01T10:32:55.524Z,326.25
2019-03-01T10:33:55.694Z,270.00
2019-03-01T10:34:55.867Z,241.88
2019-03-01T10:35:56.037Z,219.38
2019-03-01T10:36:56.208Z,202.50
2019-03-01T10:37:56.379Z,202.50
2019-03-01T10:38:56.555Z,202.50
2019-03-01T10:39:56.724Z,202.50
2019-03-01T10:40:56.895Z,202.50
2019-03-01T10:41:57.064Z,208.13
2019-03-01T10:42:57.238Z,241.88
2019-03-01T10:43:57.407Z,270.00
2019-03-01T10:44:57.580Z,275.63
2019-03-01T10:45:57.754Z,286.88
2019-03-01T10:46:59.534Z,292.50
2019-03-01T10:47:58.092Z,275.63
2019-03-01T10:48:58.266Z,275.63
2019-03-01T10:49:58.435Z,326.25
2019-03-01T10:50:58.607Z,393.75
2019-03-01T10:51:58.779Z,455.63
2019-03-01T10:52:58.947Z,495.00
2019-03-01T10:53:59.119Z,528.75
2019-03-01T10:54:59.292Z,562.50
2019-03-01T10:55:59.465Z,573.75
2019-03-01T10:56:59.634Z,579.38
2019-03-01T10:57:59.804Z,568.13
2019-03-01T10:58:59.975Z,545.63
2019-03-01T11:00:00.243Z,528.75
2019-03-01T11:01:00.321Z,528.75
2019-03-01T11:02:00.490Z,517.50
2019-03-01T11:03:00.663Z,500.63
2019-03-01T11:04:00.833Z,472.50
2019-03-01T11:05:01.008Z,444.38
2019-03-01T11:06:01.179Z,416.25
2019-03-01T11:07:01.350Z,376.88
2019-03-01T11:08:01.521Z,348.75
2019-03-01T11:09:01.693Z,320.63
2019-03-01T11:10:01.864Z,315.00
2019-03-01T11:11:02.041Z,315.00
2019-03-01T11:12:02.204Z,315.00
2019-03-01T11:13:02.379Z,303.75
2019-03-01T11:14:02.552Z,286.88
2019-03-01T11:15:02.724Z,270.00
2019-03-01T11:16:02.895Z,253.13
2019-03-01T11:17:03.068Z,230.63
2019-03-01T11:18:03.239Z,219.38
2019-03-01T11:19:03.413Z,208.13
2019-03-01T11:20:03.589Z,202.50
2019-03-01T11:21:03.760Z,196.88
2019-03-01T11:22:03.930Z,196.88
2019-03-01T11:23:04.103Z,202.50
2019-03-01T11:24:04.275Z,208.13
2019-03-01T11:25:04.447Z,208.13
2019-03-01T11:26:04.620Z,219.38
2019-03-01T11:27:12.664Z,230.63
2019-03-01T11:28:04.964Z,247.50
2019-03-01T11:29:05.135Z,264.38
2019-03-01T11:30:05.307Z,298.13
2019-03-01T11:31:05.480Z,343.13
2019-03-01T11:32:05.657Z,393.75
2019-03-01T11:33:05.822Z,461.25
2019-03-01T11:34:05.994Z,534.38
2019-03-01T11:35:06.165Z,573.75
2019-03-01T11:36:06.338Z,585.00
2019-03-01T11:37:06.510Z,585.00
2019-03-01T11:38:06.684Z,618.75
2019-03-01T11:39:06.859Z,680.63
2019-03-01T11:40:07.057Z,748.13
2019-03-01T11:41:07.197Z,798.75
2019-03-01T11:42:07.370Z,810.00
2019-03-01T11:43:07.538Z,793.13
2019-03-01T11:44:07.711Z,877.50
2019-03-01T11:45:07.882Z,1023.75
2019-03-01T11:46:08.038Z,1406.25
2019-03-01T11:47:08.203Z,2098.13
2019-03-01T11:48:08.382Z,3172.50
2019-03-01T11:49:08.552Z,1535.63
2019-03-01T11:50:08.724Z,2514.38
2019-03-01T11:51:08.897Z,4336.88
2019-03-01T11:52:09.070Z,4426.88
2019-03-01T11:53:09.239Z,3127.50
2019-03-01T11:54:09.410Z,2205.00
2019-03-01T11:55:09.587Z,2306.25
2019-03-01T11:56:09.759Z,3971.25
2019-03-01T11:57:09.933Z,3864.38
2019-03-01T11:58:10.108Z,2227.50
2019-03-01T11:59:10.281Z,2008.13
2019-03-01T12:00:10.454Z,1445.63
2019-03-01T12:01:17.067Z,1350.00
2019-03-01T12:02:10.803Z,1293.75
2019-03-01T12:03:10.977Z,1243.13
2019-03-01T12:04:11.153Z,1001.25
2019-03-01T12:05:11.327Z,815.63
2019-03-01T12:06:11.504Z,697.50
2019-03-01T12:07:11.679Z,624.38
2019-03-01T12:08:11.854Z,579.38
2019-03-01T12:09:12.027Z,551.25
2019-03-01T12:10:12.500Z,540.00
2019-03-01T12:11:12.378Z,511.88
2019-03-01T12:12:12.550Z,444.38
2019-03-01T12:13:12.725Z,410.63
2019-03-01T12:14:12.903Z,393.75
2019-03-01T12:15:13.074Z,393.75
2019-03-01T12:16:13.253Z,388.13
2019-03-01T12:17:13.426Z,360.00
2019-03-01T12:18:13.600Z,343.13
2019-03-01T12:19:13.776Z,354.38
2019-03-01T12:20:13.952Z,410.63
2019-03-01T12:21:14.126Z,461.25
2019-03-01T12:22:17.160Z,523.13
2019-03-01T12:23:14.478Z,590.63
2019-03-01T12:24:14.655Z,725.63
2019-03-01T12:25:14.829Z,1091.25
2019-03-01T12:26:15.003Z,781.88
2019-03-01T12:27:15.183Z,618.75
2019-03-01T12:28:15.346Z,663.75
2019-03-01T12:29:15.519Z,815.63
2019-03-01T12:30:15.694Z,1085.63
2019-03-01T12:31:15.869Z,2036.25
2019-03-01T12:32:16.044Z,3369.38
2019-03-01T12:33:16.218Z,2655.00
2019-03-01T12:34:16.393Z,1631.25
2019-03-01T12:35:16.572Z,1029.38
2019-03-01T12:36:16.743Z,742.50
2019-03-01T12:37:16.916Z,568.13
2019-03-01T12:38:17.089Z,421.88
2019-03-01T12:39:17.265Z,326.25
2019-03-01T12:40:17.436Z,281.25
2019-03-01T12:41:17.608Z,253.13
2019-03-01T12:42:17.784Z,241.88
2019-03-01T12:43:17.956Z,225.00
2019-03-01T12:44:18.129Z,219.38
2019-03-01T12:45:18.302Z,236.25
2019-03-01T12:46:18.475Z,275.63
2019-03-01T12:47:18.652Z,320.63
2019-03-01T12:48:18.821Z,371.25
2019-03-01T12:49:18.997Z,393.75
2019-03-01T12:50:19.171Z,393.75
2019-03-01T12:51:19.344Z,393.75
2019-03-01T12:52:19.516Z,388.13
2019-03-01T12:53:19.687Z,388.13
2019-03-01T12:54:19.861Z,393.75
2019-03-01T12:55:20.037Z,427.50
2019-03-01T12:56:20.206Z,455.63
2019-03-01T12:57:20.378Z,483.75
2019-03-01T12:58:20.552Z,523.13
2019-03-01T12:59:20.723Z,562.50
2019-03-01T13:00:20.895Z,579.38
2019-03-01T13:01:21.067Z,568.13
2019-03-01T13:02:21.240Z,556.88
2019-03-01T13:03:21.414Z,568.13
2019-03-01T13:04:21.586Z,613.13
2019-03-01T13:05:21.760Z,680.63
2019-03-01T13:06:21.931Z,748.13
2019-03-01T13:07:22.104Z,849.38
2019-03-01T13:08:22.274Z,950.63
2019-03-01T13:09:23.504Z,781.88
2019-03-01T13:10:22.622Z,675.00
2019-03-01T13:11:22.793Z,601.88
2019-03-01T13:12:26.179Z,556.88
2019-03-01T13:13:23.142Z,540.00
2019-03-01T13:14:23.311Z,500.63
2019-03-01T13:15:23.483Z,455.63
2019-03-01T13:16:26.635Z,416.25
2019-03-01T13:17:23.826Z,376.88
2019-03-01T13:18:23.998Z,343.13
2019-03-01T13:19:26.104Z,331.88
2019-03-01T13:20:24.346Z,320.63
2019-03-01T13:21:24.518Z,298.13
2019-03-01T13:22:24.816Z,298.13
2019-03-01T13:23:24.862Z,320.63
2019-03-01T13:24:25.036Z,388.13
2019-03-01T13:25:25.984Z,399.38
2019-03-01T13:26:25.380Z,393.75
2019-03-01T13:27:25.552Z,354.38
2019-03-01T13:28:25.727Z,365.63
2019-03-01T13:29:25.910Z,360.00
2019-03-01T13:30:26.068Z,382.50
2019-03-01T13:31:26.246Z,393.75
2019-03-01T13:32:26.435Z,388.13
2019-03-01T13:33:26.592Z,399.38
2019-03-01T13:34:26.843Z,405.00
2019-03-01T13:35:27.598Z,421.88
2019-03-01T13:36:27.103Z,466.88
2019-03-01T13:37:27.276Z,528.75
2019-03-01T13:38:30.462Z,573.75
2019-03-01T13:39:27.618Z,579.38
2019-03-01T13:40:27.792Z,551.25
2019-03-01T13:41:27.965Z,528.75
2019-03-01T13:42:28.135Z,545.63
2019-03-01T13:43:28.328Z,607.50
2019-03-01T13:44:28.477Z,579.38
2019-03-01T13:45:28.651Z,562.50
2019-03-01T13:46:30.264Z,489.38
2019-03-01T13:47:28.994Z,410.63
2019-03-01T13:48:29.169Z,337.50
2019-03-01T13:49:30.403Z,264.38
2019-03-01T13:50:29.511Z,202.50
2019-03-01T13:51:29.682Z,146.25
2019-03-01T13:52:31.040Z,112.50
2019-03-01T13:53:30.272Z,101.25
2019-03-01T13:54:30.198Z,95.63
2019-03-01T13:55:30.369Z,101.25
2019-03-01T13:56:32.813Z,106.88
2019-03-01T13:57:30.716Z,118.13
2019-03-01T13:58:30.884Z,123.75
2019-03-01T13:59:31.057Z,118.13
2019-03-01T14:00:31.231Z,118.13
2019-03-01T14:01:31.410Z,118.13
2019-03-01T14:02:31.572Z,118.13
2019-03-01T14:03:31.747Z,123.75
2019-03-01T14:04:31.915Z,123.75
2019-03-01T14:05:32.088Z,129.38
2019-03-01T14:06:32.264Z,140.63
2019-03-01T14:07:32.429Z,157.50
2019-03-01T14:08:32.601Z,191.25
2019-03-01T14:09:34.410Z,230.63
2019-03-01T14:10:32.953Z,270.00
2019-03-01T14:11:33.111Z,309.38
2019-03-01T14:12:34.137Z,326.25
2019-03-01T14:13:33.451Z,303.75
2019-03-01T14:14:33.620Z,298.13
2019-03-01T14:15:34.973Z,320.63
2019-03-01T14:16:33.965Z,348.75
2019-03-01T14:17:34.137Z,315.00
2019-03-01T14:18:36.795Z,298.13
2019-03-01T14:19:34.526Z,286.88
2019-03-01T14:20:34.649Z,281.25
2019-03-01T14:21:34.817Z,281.25
2019-03-01T14:22:34.987Z,281.25
2019-03-01T14:23:35.157Z,275.63
2019-03-01T14:24:35.331Z,258.75
2019-03-01T14:25:38.471Z,230.63
2019-03-01T14:26:35.671Z,208.13
2019-03-01T14:27:35.839Z,185.63
2019-03-01T14:28:38.020Z,163.13
2019-03-01T14:29:36.189Z,151.88
2019-03-01T14:30:36.354Z,146.25
2019-03-01T14:31:36.526Z,151.88
2019-03-01T14:32:36.698Z,157.50
2019-03-01T14:33:36.870Z,157.50
2019-03-01T14:34:37.037Z,157.50
2019-03-01T14:35:37.207Z,146.25
2019-03-01T14:36:39.864Z,135.00
2019-03-01T14:37:37.555Z,123.75
2019-03-01T14:38:37.721Z,118.13
2019-03-01T14:39:37.890Z,106.88
2019-03-01T14:40:38.061Z,106.88
2019-03-01T14:41:38.234Z,106.88
2019-03-01T14:42:38.404Z,106.88
2019-03-01T14:43:38.577Z,106.88
2019-03-01T14:44:38.747Z,106.88
2019-03-01T14:45:41.675Z,106.88
2019-03-01T14:46:39.085Z,106.88
2019-03-01T14:47:39.256Z,106.88
2019-03-01T14:48:39.425Z,106.88
2019-03-01T14:49:39.599Z,118.13
2019-03-01T14:50:39.767Z,123.75
2019-03-01T14:51:39.938Z,135.00
2019-03-01T14:52:40.116Z,151.88
2019-03-01T14:53:40.287Z,151.88
2019-03-01T14:54:41.885Z,151.88
2019-03-01T14:55:40.627Z,151.88
2019-03-01T14:56:40.799Z,151.88
2019-03-01T14:57:43.059Z,151.88
2019-03-01T14:58:41.137Z,151.88
2019-03-01T14:59:41.306Z,157.50
2019-03-01T15:00:41.477Z,163.13
2019-03-01T15:01:41.646Z,163.13
2019-03-01T15:02:41.815Z,168.75
2019-03-01T15:03:41.987Z,174.38
2019-03-01T15:04:42.155Z,180.00
2019-03-01T15:05:42.922Z,196.88
2019-03-01T15:06:42.497Z,202.50
2019-03-01T15:07:42.667Z,202.50
2019-03-01T15:08:44.220Z,202.50
2019-03-01T15:09:43.005Z,180.00
2019-03-01T15:10:43.177Z,151.88
2019-03-01T15:11:44.347Z,123.75
2019-03-01T15:12:43.521Z,106.88
2019-03-01T15:13:43.697Z,95.63
2019-03-01T15:14:49.649Z,90.00
2019-03-01T15:15:44.031Z,84.38
2019-03-01T15:16:44.403Z,78.75
2019-03-01T15:17:44.379Z,73.13
2019-03-01T15:18:44.549Z,67.50
2019-03-01T15:19:45.412Z,61.88
2019-03-01T15:20:44.889Z,56.25
2019-03-01T15:21:45.061Z,50.63
2019-03-01T15:22:45.607Z,50.63
2019-03-01T15:23:45.404Z,45.00
2019-03-01T15:24:45.573Z,45.00
2019-03-01T15:25:48.560Z,39.38
2019-03-01T15:26:46.266Z,39.38
2019-03-01T15:27:46.084Z,39.38
2019-03-01T15:28:46.255Z,45.00
2019-03-01T15:29:46.425Z,45.00
2019-03-01T15:30:47.474Z,50.63
2019-03-01T15:31:46.762Z,45.00
2019-03-01T15:32:46.930Z,45.00
2019-03-01T15:33:47.939Z,39.38
2019-03-01T15:34:47.270Z,39.38
2019-03-01T15:35:47.444Z,39.38
2019-03-01T15:36:47.613Z,39.38
2019-03-01T15:37:47.782Z,39.38
2019-03-01T15:38:47.954Z,33.75
2019-03-01T15:39:48.124Z,28.13
2019-03-01T15:40:48.295Z,28.13
2019-03-01T15:41:48.467Z,28.13
2019-03-01T15:42:51.544Z,33.75
2019-03-01T15:43:48.809Z,33.75
2019-03-01T15:44:48.986Z,39.38
2019-03-01T15:45:49.147Z,39.38
2019-03-01T15:46:49.980Z,39.38
2019-03-01T15:47:50.477Z,33.75
2019-03-01T15:48:49.656Z,33.75
2019-03-01T15:49:51.511Z,33.75
2019-03-01T15:50:50.001Z,28.13
2019-03-01T15:51:50.170Z,28.13
2019-03-01T15:52:50.812Z,28.13
2019-03-01T15:53:50.506Z,28.13
2019-03-01T15:54:50.678Z,28.13
2019-03-01T15:55:50.848Z,28.13
2019-03-01T15:56:51.018Z,28.13
2019-03-01T15:57:53.082Z,33.75
2019-03-01T15:58:51.360Z,33.75
2019-03-01T15:59:51.531Z,39.38
2019-03-01T16:00:51.701Z,39.38
2019-03-01T16:01:51.872Z,45.00
2019-03-01T16:02:53.330Z,45.00
2019-03-01T16:03:54.038Z,45.00
2019-03-01T16:04:52.384Z,50.63
2019-03-01T16:05:52.556Z,56.25
2019-03-01T16:06:56.331Z,56.25
2019-03-01T16:07:52.897Z,50.63
2019-03-01T16:08:53.072Z,39.38
2019-03-01T16:09:53.243Z,39.38
2019-03-01T16:10:53.413Z,50.63
2019-03-01T16:11:56.482Z,56.25
2019-03-01T16:12:53.748Z,45.00
2019-03-01T16:13:53.922Z,45.00
2019-03-01T16:14:54.091Z,50.63
2019-03-01T16:15:54.259Z,73.13
2019-03-01T16:16:54.428Z,78.75
2019-03-01T16:17:57.601Z,78.75
2019-03-01T16:18:54.771Z,90.00
2019-03-01T16:19:54.943Z,78.75
2019-03-01T16:20:55.110Z,67.50
2019-03-01T16:21:55.278Z,67.50
2019-03-01T16:22:55.449Z,61.88
2019-03-01T16:23:55.616Z,50.63
2019-03-01T16:24:55.786Z,45.00
2019-03-01T16:25:56.399Z,39.38
2019-03-01T16:26:56.130Z,33.75
2019-03-01T16:27:56.297Z,28.13
2019-03-01T16:28:56.468Z,22.50
2019-03-01T16:29:56.639Z,22.50
2019-03-01T16:30:56.926Z,16.88
2019-03-01T16:31:56.978Z,11.25
2019-03-01T16:32:57.154Z,11.25
2019-03-01T16:33:57.322Z,11.25
2019-03-01T16:34:57.492Z,11.25
2019-03-01T16:35:57.663Z,11.25
2019-03-01T16:36:57.833Z,5.63
2019-03-01T16:38:01.270Z,5.63
2019-03-01T16:38:58.180Z,11.25
2019-03-01T16:40:00.351Z,11.25
2019-03-01T16:41:01.881Z,11.25
2019-03-01T16:41:58.689Z,11.25
2019-03-01T16:42:58.860Z,5.63
2019-03-01T16:44:01.442Z,5.63
2019-03-01T16:44:59.203Z,5.63
2019-03-01T16:45:59.378Z,5.63
2019-03-01T16:46:59.545Z,5.63
2019-03-01T16:48:00.891Z,5.63
2019-03-01T16:48:59.886Z,5.63
2019-03-01T16:50:02.757Z,5.63
2019-03-01T16:51:00.227Z,5.63
2019-03-01T16:52:00.397Z,5.63
2019-03-01T16:53:04.273Z,5.63
2019-03-01T16:54:00.733Z,5.63
2019-03-01T16:55:00.905Z,5.63
2019-03-01T16:56:02.702Z,5.63
2019-03-01T16:57:01.246Z,5.63
2019-03-01T16:58:06.794Z,5.63
2019-03-01T16:59:03.842Z,5.63
2019-03-01T17:00:01.757Z,0.00
2019-03-01T17:01:01.927Z,0.00
2019-03-01T17:02:06.204Z,0.00
2019-03-01T17:03:02.270Z,0.00
2019-03-01T17:04:02.440Z,0.00
2019-03-01T17:05:03.685Z,0.00
2019-03-01T17:06:02.779Z,0.00
2019-03-01T17:07:04.455Z,0.00
2019-03-01T17:08:05.798Z,0.00
2019-03-01T17:09:03.288Z,0.00
2019-03-01T17:10:03.458Z,0.00
2019-03-01T17:11:05.693Z,0.00
2019-03-01T17:12:03.799Z,0.00
2019-03-01T17:13:03.966Z,0.00
2019-03-01T17:14:04.136Z,0.00
2019-03-01T17:15:04.308Z,0.00
2019-03-01T17:16:04.477Z,0.00
2019-03-01T17:17:04.644Z,0.00
2019-03-01T17:18:04.816Z,0.00
2019-03-01T17:19:04.985Z,0.00
2019-03-01T17:20:05.154Z,0.00
2019-03-01T17:21:05.325Z,0.00
2019-03-01T17:22:05.497Z,0.00
2019-03-01T17:23:05.663Z,0.00
2019-03-01T17:24:05.834Z,0.00
2019-03-01T17:25:06.003Z,0.00
2019-03-01T17:26:06.172Z,0.00
2019-03-01T17:27:06.770Z,0.00
2019-03-01T17:28:06.511Z,0.00
2019-03-01T17:29:06.679Z,0.00
2019-03-01T17:30:06.849Z,0.00
2019-03-01T17:31:07.021Z,0.00
2019-03-01T17:32:07.188Z,0.00
2019-03-01T17:33:09.729Z,0.00
2019-03-01T17:34:07.528Z,0.00
2019-03-01T17:35:07.697Z,0.00
2019-03-01T17:36:07.868Z,0.00
2019-03-01T17:37:08.034Z,0.00
2019-03-01T17:38:08.369Z,0.00
2019-03-01T17:39:08.376Z,0.00
2019-03-01T17:40:08.545Z,0.00
2019-03-01T17:41:09.719Z,0.00
2019-03-01T17:42:08.884Z,0.00
2019-03-01T17:43:09.054Z,0.00
2019-03-01T17:44:09.638Z,0.00
2019-03-01T17:45:09.865Z,0.00